Terminal Aerodrome Forecast
Issued by NWS Huntsville, AL

Home | Current Version | Previous Version | Text Only | Print | Product List | Glossary On
Versions: 1 2 3 4 5 6 7 8 9 10 11 12 13 14 15 16 17 18 19 20 21 22 23 24 25 26 27 28 29
000
FTUS44 KHUN 301420 AAA
TAFHSV
TAF AMD
KHSV 301420Z 3014/0112 00000KT 5SM BR BKN004
     FM301600 VRB02KT 6SM BR BKN006
     FM301700 VRB03KT P6SM SCT015
     FM302300 VRB03KT P6SM SCT250=

USA.gov is the U.S. government's official web portal to all federal, state and local government web resources and services.